createdAt,value
2023-05-15T00:02:06.717Z,11.10
2023-05-15T00:05:37.449Z,10.80
2023-05-15T00:09:01.139Z,10.70
2023-05-15T00:12:47.940Z,10.30
2023-05-15T00:16:22.518Z,10.70
2023-05-15T00:19:57.892Z,11.80
2023-05-15T00:23:27.843Z,10.80
2023-05-15T00:27:01.659Z,11.00
2023-05-15T00:30:28.316Z,11.00
2023-05-15T00:33:34.887Z,11.20
2023-05-15T00:37:21.408Z,11.70
2023-05-15T00:41:02.482Z,10.70
2023-05-15T00:44:50.448Z,11.00
2023-05-15T00:48:29.872Z,10.10
2023-05-15T00:52:09.489Z,10.10
2023-05-15T00:55:50.200Z,10.60
2023-05-15T00:59:29.888Z,10.60
2023-05-15T01:03:10.116Z,10.20
2023-05-15T01:06:46.982Z,10.10
2023-05-15T01:10:10.656Z,10.70
2023-05-15T01:13:47.462Z,10.10
2023-05-15T01:17:27.164Z,10.60
2023-05-15T01:21:15.253Z,10.60
2023-05-15T01:24:59.674Z,10.70
2023-05-15T01:32:01.428Z,10.40
2023-05-15T01:35:52.524Z,11.00
2023-05-15T01:39:26.780Z,10.90
2023-05-15T01:43:14.721Z,10.60
2023-05-15T01:46:48.383Z,10.20
2023-05-15T01:50:36.501Z,9.70
2023-05-15T01:54:15.467Z,8.90
2023-05-15T01:57:45.018Z,9.60
2023-05-15T02:01:33.025Z,9.50
2023-05-15T02:05:21.111Z,9.60
2023-05-15T02:09:09.154Z,10.20
2023-05-15T02:12:22.525Z,10.60
2023-05-15T02:15:26.209Z,10.50
2023-05-15T02:18:43.165Z,10.30
2023-05-15T02:21:43.551Z,10.00
2023-05-15T02:24:55.862Z,9.80
2023-05-15T02:28:11.176Z,9.70
2023-05-15T02:31:49.296Z,9.20
2023-05-15T02:35:44.317Z,9.80
2023-05-15T02:39:23.953Z,10.30
2023-05-15T02:42:37.806Z,10.50
2023-05-15T02:46:08.803Z,10.30
2023-05-15T02:53:13.678Z,9.60
2023-05-15T02:56:37.276Z,9.40
2023-05-15T03:00:16.519Z,9.30
2023-05-15T03:03:53.650Z,8.80
2023-05-15T03:07:15.559Z,9.10
2023-05-15T03:10:35.181Z,9.40
2023-05-15T03:14:23.113Z,9.30
2023-05-15T03:17:53.289Z,9.60
2023-05-15T03:21:22.183Z,10.20
2023-05-15T03:24:30.261Z,9.80
2023-05-15T03:27:58.632Z,9.50
2023-05-15T03:31:11.466Z,9.50
2023-05-15T03:33:58.070Z,8.80
2023-05-15T03:37:24.158Z,9.80
2023-05-15T03:41:14.379Z,9.80
2023-05-15T03:44:37.819Z,10.50
2023-05-15T03:47:54.466Z,10.30
2023-05-15T03:51:33.933Z,9.90
2023-05-15T03:55:12.221Z,10.40
2023-05-15T03:58:40.209Z,8.90
2023-05-15T04:01:37.203Z,10.80
2023-05-15T04:05:19.778Z,10.80
2023-05-15T04:09:07.841Z,10.00
2023-05-15T04:12:39.169Z,9.70
2023-05-15T04:16:20.025Z,9.90
2023-05-15T04:19:59.148Z,10.40
2023-05-15T04:23:12.920Z,10.70
2023-05-15T04:26:18.712Z,10.20
2023-05-15T04:29:32.027Z,10.40
2023-05-15T04:33:04.216Z,9.70
2023-05-15T04:36:46.898Z,9.80
2023-05-15T04:40:18.159Z,10.40
2023-05-15T04:44:06.190Z,10.20
2023-05-15T04:47:47.517Z,10.40
2023-05-15T04:51:28.355Z,10.30
2023-05-15T04:55:08.681Z,10.40
2023-05-15T04:58:29.483Z,10.70
2023-05-15T05:02:06.421Z,10.90
2023-05-15T05:05:27.929Z,10.60
2023-05-15T05:08:38.667Z,11.30
2023-05-15T05:12:11.990Z,10.80
2023-05-15T05:15:24.391Z,10.60
2023-05-15T05:19:02.260Z,10.70
2023-05-15T05:22:50.300Z,10.70
2023-05-15T05:26:37.531Z,11.90
2023-05-15T05:29:48.508Z,13.50
2023-05-15T05:33:10.802Z,12.60
2023-05-15T05:36:45.461Z,11.10
2023-05-15T05:40:25.489Z,10.10
2023-05-15T05:43:34.163Z,9.90
2023-05-15T05:47:16.514Z,8.80
2023-05-15T05:50:44.136Z,8.10
2023-05-15T05:54:16.842Z,8.30
2023-05-15T05:57:42.057Z,8.50
2023-05-15T06:01:22.968Z,7.30
2023-05-15T06:05:00.173Z,8.10
2023-05-15T06:08:37.116Z,7.10
2023-05-15T06:12:08.289Z,6.80
2023-05-15T06:15:30.268Z,7.00
2023-05-15T06:19:03.644Z,5.80
2023-05-15T06:22:29.617Z,6.30
2023-05-15T06:25:53.382Z,5.60
2023-05-15T06:29:07.475Z,5.10
2023-05-15T06:32:18.440Z,4.40
2023-05-15T06:35:24.319Z,4.10
2023-05-15T06:38:21.097Z,4.10
2023-05-15T06:41:58.040Z,4.40
2023-05-15T06:45:31.531Z,4.10
2023-05-15T06:48:51.839Z,4.60
2023-05-15T06:51:56.633Z,4.40
2023-05-15T06:54:49.786Z,4.50
2023-05-15T06:58:18.727Z,4.40
2023-05-15T07:01:17.686Z,4.70
2023-05-15T07:04:55.267Z,5.10
2023-05-15T07:08:27.338Z,4.90
2023-05-15T07:11:42.332Z,4.70
2023-05-15T07:15:18.906Z,4.60
2023-05-15T07:18:49.659Z,4.60
2023-05-15T07:21:57.867Z,4.50
2023-05-15T07:25:28.802Z,4.30
2023-05-15T07:28:36.824Z,4.90
2023-05-15T07:31:45.780Z,4.90
2023-05-15T07:35:10.488Z,4.90
2023-05-15T07:38:33.288Z,4.60
2023-05-15T07:42:12.412Z,4.40
2023-05-15T07:45:06.313Z,4.40
2023-05-15T07:48:16.600Z,4.20
2023-05-15T07:51:47.604Z,4.20
2023-05-15T07:54:41.640Z,4.60
2023-05-15T07:57:40.876Z,4.20
2023-05-15T08:00:56.915Z,4.20
2023-05-15T08:03:45.025Z,4.20
2023-05-15T08:06:47.188Z,4.20
2023-05-15T08:10:07.027Z,4.80
2023-05-15T08:12:51.623Z,3.60
2023-05-15T08:15:30.639Z,3.50
2023-05-15T08:18:37.755Z,3.90
2023-05-15T08:21:46.271Z,4.30
2023-05-15T08:24:36.665Z,3.70
2023-05-15T08:27:45.170Z,4.10
2023-05-15T08:30:56.560Z,4.10
2023-05-15T08:34:04.479Z,4.10
2023-05-15T08:37:26.423Z,3.90
2023-05-15T08:40:58.421Z,3.80
2023-05-15T08:44:39.426Z,3.90
2023-05-15T08:47:45.178Z,3.80
2023-05-15T08:50:47.455Z,3.90
2023-05-15T08:53:35.059Z,4.00
2023-05-15T08:56:31.881Z,3.50
2023-05-15T08:59:29.469Z,3.80
2023-05-15T09:02:16.572Z,3.60
2023-05-15T09:05:29.183Z,4.20
2023-05-15T09:08:32.169Z,3.90
2023-05-15T09:11:47.156Z,4.00
2023-05-15T09:15:39.116Z,3.80
2023-05-15T09:18:52.747Z,4.00
2023-05-15T09:21:56.901Z,3.80
2023-05-15T09:24:53.184Z,3.80
2023-05-15T09:28:44.462Z,4.30
2023-05-15T09:31:31.785Z,4.00
2023-05-15T09:34:22.735Z,4.00
2023-05-15T09:36:50.211Z,4.30
2023-05-15T09:40:19.295Z,4.80
2023-05-15T09:43:22.747Z,3.90
2023-05-15T09:46:43.450Z,4.30
2023-05-15T09:49:34.637Z,3.70
2023-05-15T09:52:42.411Z,3.20
2023-05-15T09:56:21.036Z,3.40
2023-05-15T10:00:09.132Z,3.80
2023-05-15T10:04:03.459Z,3.40
2023-05-15T10:07:19.652Z,3.50
2023-05-15T10:11:01.512Z,3.30
2023-05-15T10:14:32.779Z,3.30
2023-05-15T10:18:12.908Z,3.20
2023-05-15T10:21:54.969Z,3.70
2023-05-15T10:25:28.837Z,3.60
2023-05-15T10:28:38.802Z,3.30
2023-05-15T10:32:15.405Z,3.30
2023-05-15T10:35:46.031Z,3.00
2023-05-15T10:39:17.549Z,3.50
2023-05-15T10:42:36.193Z,2.80
2023-05-15T10:46:21.247Z,2.80
2023-05-15T10:49:14.201Z,3.10
2023-05-15T10:52:12.131Z,3.60
2023-05-15T10:55:20.531Z,3.60
2023-05-15T10:58:53.151Z,3.50
2023-05-15T11:02:01.165Z,3.60
2023-05-15T11:05:12.781Z,3.70
2023-05-15T11:08:58.948Z,3.30
2023-05-15T11:12:15.392Z,3.40
2023-05-15T11:15:04.743Z,4.20
2023-05-15T11:18:12.350Z,3.20
2023-05-15T11:21:15.304Z,3.40
2023-05-15T11:24:36.179Z,3.50
2023-05-15T11:27:13.497Z,3.00
2023-05-15T11:30:30.497Z,3.50
2023-05-15T11:33:38.221Z,3.40
2023-05-15T11:36:26.382Z,3.00
2023-05-15T11:39:11.568Z,2.80
2023-05-15T11:42:17.514Z,3.10
2023-05-15T11:44:51.483Z,3.00
2023-05-15T11:48:00.311Z,3.20
2023-05-15T11:51:08.392Z,3.30
2023-05-15T11:53:56.044Z,3.40
2023-05-15T11:59:48.372Z,3.40
2023-05-15T12:03:10.328Z,3.20
2023-05-15T12:05:57.624Z,3.00
2023-05-15T12:08:53.216Z,3.20
2023-05-15T12:11:58.975Z,3.30
2023-05-15T12:15:20.799Z,2.80
2023-05-15T12:18:07.804Z,3.20
2023-05-15T12:21:06.129Z,3.30
2023-05-15T12:24:08.042Z,3.40
2023-05-15T12:27:37.617Z,3.20
2023-05-15T12:30:37.779Z,3.40
2023-05-15T12:33:37.631Z,3.80
2023-05-15T12:36:53.924Z,3.30
2023-05-15T12:40:30.975Z,3.40
2023-05-15T12:43:49.023Z,3.10
2023-05-15T12:47:02.047Z,3.30
2023-05-15T12:50:41.042Z,3.10
2023-05-15T12:53:58.879Z,3.40
2023-05-15T12:57:13.637Z,2.80
2023-05-15T13:01:06.461Z,3.10
2023-05-15T13:04:37.219Z,2.80
2023-05-15T13:07:23.526Z,2.90
2023-05-15T13:10:34.064Z,2.80
2023-05-15T13:13:29.762Z,2.50
2023-05-15T13:16:43.064Z,2.80
2023-05-15T13:19:57.089Z,3.00
2023-05-15T13:22:28.050Z,2.80
2023-05-15T13:24:57.281Z,2.80
2023-05-15T13:27:24.946Z,3.80
2023-05-15T13:30:25.196Z,5.00
2023-05-15T13:32:55.977Z,3.20
2023-05-15T13:35:33.844Z,3.10
2023-05-15T13:38:18.456Z,3.00
2023-05-15T13:41:47.411Z,3.00
2023-05-15T13:45:10.872Z,2.70
2023-05-15T13:48:28.338Z,3.40
2023-05-15T13:51:49.466Z,3.20
2023-05-15T13:55:02.611Z,3.00
2023-05-15T13:58:44.153Z,3.20
2023-05-15T14:01:56.412Z,2.90
2023-05-15T14:05:20.908Z,2.90
2023-05-15T14:08:33.262Z,3.10
2023-05-15T14:11:47.308Z,3.00
2023-05-15T14:14:45.963Z,2.90
2023-05-15T14:18:05.848Z,3.00
2023-05-15T14:21:04.868Z,2.70
2023-05-15T14:24:05.696Z,3.00
2023-05-15T14:27:35.494Z,2.90
2023-05-15T14:31:05.353Z,2.70
2023-05-15T14:34:07.061Z,3.00
2023-05-15T14:37:05.722Z,2.70
2023-05-15T14:40:06.413Z,2.70
2023-05-15T14:43:08.967Z,3.30
2023-05-15T14:45:41.794Z,3.20
2023-05-15T14:48:31.079Z,2.90
2023-05-15T14:51:14.125Z,3.60
2023-05-15T14:54:21.807Z,3.20
2023-05-15T14:56:49.018Z,11.80
2023-05-15T14:59:36.667Z,3.30
2023-05-15T15:02:06.601Z,3.10
2023-05-15T15:05:14.780Z,3.00
2023-05-15T15:08:59.834Z,2.60
2023-05-15T15:12:21.677Z,3.10
2023-05-15T15:15:29.449Z,3.30
2023-05-15T15:18:37.556Z,3.30
2023-05-15T15:21:54.889Z,3.10
2023-05-15T15:25:01.231Z,3.20
2023-05-15T15:28:23.875Z,3.30
2023-05-15T15:31:08.898Z,3.00
2023-05-15T15:34:24.078Z,3.00
2023-05-15T15:37:39.031Z,2.80
2023-05-15T15:41:10.381Z,2.90
2023-05-15T15:44:41.250Z,2.90
2023-05-15T15:47:44.631Z,3.00
2023-05-15T15:51:26.501Z,2.60
2023-05-15T15:54:37.799Z,2.80
2023-05-15T15:57:59.006Z,3.10
2023-05-15T16:01:25.943Z,2.80
2023-05-15T16:04:37.043Z,2.80
2023-05-15T16:08:10.196Z,3.00
2023-05-15T16:11:37.000Z,2.90
2023-05-15T16:14:45.031Z,2.90
2023-05-15T16:18:02.645Z,2.70
2023-05-15T16:21:29.331Z,2.50
2023-05-15T16:28:29.096Z,2.80
2023-05-15T16:31:56.597Z,2.80
2023-05-15T16:35:02.111Z,2.80
2023-05-15T16:38:26.082Z,2.60
2023-05-15T16:42:14.058Z,2.60
2023-05-15T16:46:02.235Z,2.70
2023-05-15T16:48:55.706Z,3.00
2023-05-15T16:52:20.794Z,4.20
2023-05-15T16:55:30.391Z,3.00
2023-05-15T16:58:56.613Z,2.80
2023-05-15T17:02:28.524Z,3.20
2023-05-15T17:06:06.091Z,2.90
2023-05-15T17:09:11.864Z,2.70
2023-05-15T17:12:33.526Z,3.40
2023-05-15T17:15:37.870Z,2.90
2023-05-15T17:18:45.625Z,3.00
2023-05-15T17:21:59.137Z,3.00
2023-05-15T17:24:55.333Z,3.20
2023-05-15T17:31:29.747Z,3.10
2023-05-15T17:35:27.539Z,3.50
2023-05-15T17:38:31.864Z,3.00
2023-05-15T17:41:58.667Z,3.30
2023-05-15T17:45:00.510Z,3.40
2023-05-15T17:48:45.183Z,3.20
2023-05-15T17:52:01.721Z,3.30
2023-05-15T17:55:26.071Z,3.60
2023-05-15T17:58:57.104Z,3.70
2023-05-15T18:02:25.057Z,3.40
2023-05-15T18:05:58.134Z,3.50
2023-05-15T18:09:29.767Z,3.60
2023-05-15T18:12:31.549Z,3.60
2023-05-15T18:16:08.727Z,3.50
2023-05-15T18:19:44.048Z,3.70
2023-05-15T18:23:20.315Z,3.60
2023-05-15T18:26:23.771Z,3.80
2023-05-15T18:29:45.634Z,3.60
2023-05-15T18:33:18.524Z,4.20
2023-05-15T18:35:46.088Z,4.20
2023-05-15T18:39:02.841Z,3.80
2023-05-15T18:42:22.231Z,4.50
2023-05-15T18:45:09.908Z,5.00
2023-05-15T18:48:17.476Z,4.40
2023-05-15T18:50:44.539Z,4.70
2023-05-15T18:53:21.922Z,4.80
2023-05-15T18:56:33.531Z,4.20
2023-05-15T18:59:59.541Z,4.50
2023-05-15T19:03:26.038Z,4.80
2023-05-15T19:06:53.693Z,4.60
2023-05-15T19:10:09.154Z,4.40
2023-05-15T19:13:42.634Z,4.40
2023-05-15T19:17:25.486Z,4.10
2023-05-15T19:21:07.635Z,3.70
2023-05-15T19:24:54.793Z,4.20
2023-05-15T19:28:20.319Z,3.90
2023-05-15T19:31:42.413Z,3.70
2023-05-15T19:35:00.204Z,3.50
2023-05-15T19:38:49.049Z,3.70
2023-05-15T19:42:19.819Z,3.70
2023-05-15T19:45:29.790Z,3.80
2023-05-15T19:49:05.833Z,3.80
2023-05-15T19:52:53.046Z,3.40
2023-05-15T19:56:23.057Z,3.50
2023-05-15T20:00:11.113Z,3.70
2023-05-15T20:03:45.728Z,3.50
2023-05-15T20:06:55.383Z,3.50
2023-05-15T20:09:58.104Z,3.60
2023-05-15T20:13:03.157Z,3.70
2023-05-15T20:16:24.207Z,3.60
2023-05-15T20:19:28.464Z,3.60
2023-05-15T20:22:33.663Z,3.40
2023-05-15T20:25:40.228Z,3.60
2023-05-15T20:28:50.930Z,3.40
2023-05-15T20:32:19.312Z,3.30
2023-05-15T20:34:58.914Z,3.60
2023-05-15T20:38:34.097Z,3.60
2023-05-15T20:41:50.176Z,3.80
2023-05-15T20:44:30.052Z,3.70
2023-05-15T20:47:45.030Z,3.50
2023-05-15T20:51:14.879Z,3.50
2023-05-15T20:54:03.342Z,4.00
2023-05-15T20:57:23.402Z,3.60
2023-05-15T21:00:51.480Z,3.60
2023-05-15T21:04:18.588Z,3.40
2023-05-15T21:07:49.480Z,3.50
2023-05-15T21:11:24.867Z,3.70
2023-05-15T21:14:46.505Z,3.50
2023-05-15T21:18:11.189Z,3.60
2023-05-15T21:21:30.381Z,3.60
2023-05-15T21:24:57.519Z,3.80
2023-05-15T21:27:53.059Z,3.50
2023-05-15T21:30:43.072Z,3.80
2023-05-15T21:33:51.831Z,3.30
2023-05-15T21:36:33.853Z,3.40
2023-05-15T21:39:19.155Z,3.60
2023-05-15T21:42:29.938Z,3.60
2023-05-15T21:46:07.134Z,3.20
2023-05-15T21:49:21.393Z,3.70
2023-05-15T21:52:18.904Z,3.70
2023-05-15T21:55:30.521Z,3.30
2023-05-15T21:58:46.235Z,4.30
2023-05-15T22:02:10.217Z,3.50
2023-05-15T22:05:37.441Z,3.60
2023-05-15T22:09:18.507Z,3.80
2023-05-15T22:12:58.669Z,3.60
2023-05-15T22:16:40.530Z,3.60
2023-05-15T22:20:07.896Z,3.80
2023-05-15T22:23:54.882Z,3.80
2023-05-15T22:27:16.908Z,3.70
2023-05-15T22:30:30.660Z,3.60
2023-05-15T22:33:51.420Z,3.80
2023-05-15T22:37:33.116Z,3.40
2023-05-15T22:41:18.923Z,3.60
2023-05-15T22:44:54.198Z,3.30
2023-05-15T22:48:40.975Z,3.50
2023-05-15T22:52:28.892Z,3.80
2023-05-15T22:55:39.670Z,3.40
2023-05-15T22:59:16.365Z,3.30
2023-05-15T23:03:02.065Z,3.90
2023-05-15T23:06:49.229Z,3.90
2023-05-15T23:10:02.141Z,3.70
2023-05-15T23:13:40.353Z,3.50
2023-05-15T23:17:21.260Z,3.80
2023-05-15T23:20:53.943Z,3.20
2023-05-15T23:24:41.930Z,3.50
2023-05-15T23:28:18.690Z,3.80
2023-05-15T23:31:52.265Z,3.30
2023-05-15T23:35:33.654Z,3.30
2023-05-15T23:38:52.170Z,3.60
2023-05-15T23:42:38.922Z,3.20
2023-05-15T23:46:19.665Z,3.90
2023-05-15T23:49:59.025Z,3.50
2023-05-15T23:53:25.864Z,3.30
2023-05-15T23:57:13.893Z,3.30
